Time;durP1;ratioP1;P1;durP2;ratioP2;P2;SDS_P1;SDS_P2;PMS_P1;PMS_P2;Temp;Humidity;BMP_temperature;BMP_pressure;BME280_temperature;BME280_humidity;BME280_pressure;Samples;Min_cycle;Max_cycle;Signal;HPM_P1;HPM_P2
2022/06/26 00:00:17;;;;;;;14.77;10.70;;;20.70;99.90;;;;;;5072125;28;20044;-74
2022/06/26 00:02:43;;;;;;;12.48;9.85;;;20.70;99.90;;;;;;5072757;28;20048;-74
2022/06/26 00:05:10;;;;;;;13.93;10.52;;;20.70;99.90;;;;;;5072264;28;20044;-74
2022/06/26 00:07:35;;;;;;;14.80;11.15;;;20.80;99.90;;;;;;5072116;28;20052;-73
2022/06/26 00:10:02;;;;;;;18.23;11.05;;;20.80;99.90;;;;;;5073194;28;20111;-73
2022/06/26 00:12:27;;;;;;;13.23;11.18;;;20.80;99.90;;;;;;5059730;28;20048;-74
2022/06/26 00:14:53;;;;;;;13.30;11.10;;;20.80;99.90;;;;;;5059482;28;20395;-73
2022/06/26 00:17:18;;;;;;;16.50;12.20;;;20.80;99.90;;;;;;5076110;28;20502;-74
2022/06/26 00:19:44;;;;;;;15.48;11.25;;;20.80;99.90;;;;;;5059434;28;20121;-73
2022/06/26 00:22:10;;;;;;;15.57;11.57;;;20.80;99.90;;;;;;5076046;28;20087;-73
2022/06/26 00:24:37;;;;;;;14.13;11.55;;;20.80;99.90;;;;;;5059360;28;20040;-74
2022/06/26 00:27:03;;;;;;;14.45;11.68;;;20.90;99.90;;;;;;5059157;28;20101;-73
2022/06/26 00:29:33;;;;;;;14.63;11.00;;;20.90;99.90;;;;;;5076226;28;20048;-74
2022/06/26 00:32:00;;;;;;;13.40;11.00;;;20.80;99.90;;;;;;5075734;28;20049;-73
2022/06/26 00:34:26;;;;;;;13.38;10.90;;;20.80;99.90;;;;;;5075340;28;20518;-74
2022/06/26 00:36:51;;;;;;;20.92;16.45;;;20.70;99.90;;;;;;5075352;28;20084;-74
2022/06/26 00:39:17;;;;;;;18.88;13.20;;;20.80;99.90;;;;;;5059200;28;20136;-73
2022/06/26 00:41:43;;;;;;;17.63;11.35;;;20.80;99.90;;;;;;5059157;28;20044;-74
2022/06/26 00:44:16;;;;;;;20.27;12.90;;;20.80;99.90;;;;;;5059108;28;20466;-73
2022/06/26 00:46:43;;;;;;;16.77;12.57;;;20.80;99.90;;;;;;5075821;28;20044;-73
2022/06/26 00:49:10;;;;;;;16.77;12.07;;;20.70;99.90;;;;;;5075106;28;20530;-74
2022/06/26 00:51:38;;;;;;;13.25;11.77;;;20.70;99.90;;;;;;5075621;28;20135;-74
2022/06/26 00:54:06;;;;;;;14.43;11.93;;;20.60;99.90;;;;;;5058720;28;20041;-73
2022/06/26 00:56:32;;;;;;;16.38;12.70;;;20.60;99.90;;;;;;5075409;28;20048;-73
2022/06/26 00:58:58;;;;;;;16.23;13.38;;;20.60;99.90;;;;;;5075692;28;20048;-73
2022/06/26 01:01:23;;;;;;;16.85;12.18;;;20.50;99.90;;;;;;5075301;28;20436;-73
2022/06/26 01:03:49;;;;;;;18.08;13.20;;;20.40;99.90;;;;;;5058777;28;20048;-73
2022/06/26 01:06:15;;;;;;;16.77;12.88;;;20.40;99.90;;;;;;5074822;28;20044;-73
2022/06/26 01:08:40;;;;;;;16.42;13.10;;;20.50;99.90;;;;;;5075220;28;20132;-73
2022/06/26 01:11:17;;;;;;;17.65;13.73;;;20.40;99.90;;;;;;5075042;28;20055;-73
2022/06/26 01:13:48;;;;;;;17.92;13.52;;;20.40;99.90;;;;;;5075440;28;20048;-74
2022/06/26 01:16:17;;;;;;;26.20;22.73;;;20.40;99.90;;;;;;5075182;28;20086;-73
2022/06/26 01:18:44;;;;;;;37.85;26.80;;;20.10;99.90;;;;;;5074920;28;20040;-73
2022/06/26 01:21:10;;;;;;;39.97;28.27;;;19.60;99.90;;;;;;5074149;28;20098;-73
2022/06/26 01:23:36;;;;;;;41.40;27.40;;;19.10;99.90;;;;;;5074434;28;20053;-73
2022/06/26 01:26:02;;;;;;;35.30;27.70;;;19.10;99.90;;;;;;5075048;28;20500;-73
2022/06/26 01:28:28;;;;;;;37.05;24.50;;;19.30;99.90;;;;;;5058061;28;20083;-74
2022/06/26 01:30:54;;;;;;;33.70;23.60;;;19.30;99.90;;;;;;5058148;28;20479;-73
2022/06/26 01:33:20;;;;;;;25.25;18.65;;;19.50;99.90;;;;;;5074468;28;20117;-73
2022/06/26 01:35:46;;;;;;;35.08;22.98;;;19.60;99.90;;;;;;5074224;28;20056;-73
2022/06/26 01:38:18;;;;;;;27.20;20.60;;;20.00;99.90;;;;;;5074857;28;20048;-73
2022/06/26 01:40:45;;;;;;;25.27;18.42;;;20.00;99.90;;;;;;5074858;28;20048;-74
2022/06/26 01:43:12;;;;;;;24.70;19.27;;;20.00;99.90;;;;;;5074847;28;20041;-73
2022/06/26 01:45:46;;;;;;;27.55;18.88;;;20.00;99.90;;;;;;5074409;28;20049;-73
2022/06/26 01:48:12;;;;;;;25.92;20.05;;;20.20;99.90;;;;;;5074518;28;20484;-74
2022/06/26 01:50:38;;;;;;;20.83;16.55;;;20.10;99.90;;;;;;5074091;28;20407;-73
2022/06/26 01:53:04;;;;;;;27.38;19.15;;;20.20;99.90;;;;;;5057829;28;20045;-73
2022/06/26 01:55:30;;;;;;;22.77;16.48;;;20.30;99.90;;;;;;5074548;28;20444;-73
2022/06/26 01:57:56;;;;;;;25.08;17.50;;;20.40;99.90;;;;;;5057628;28;20147;-73
2022/06/26 02:00:21;;;;;;;26.08;17.95;;;20.50;99.90;;;;;;5074107;28;20094;-73
2022/06/26 02:02:47;;;;;;;21.35;15.55;;;20.50;99.90;;;;;;5073900;28;20052;-74
2022/06/26 02:05:13;;;;;;;22.33;16.63;;;20.40;99.90;;;;;;5074012;28;20055;-74
2022/06/26 02:07:38;;;;;;;21.20;14.93;;;20.50;99.90;;;;;;5074759;28;20052;-73
2022/06/26 02:15:34;;;;;;;22.13;16.55;;;20.80;99.90;;;;;;5073868;28;20102;-74
2022/06/26 02:18:00;;;;;;;19.83;13.20;;;20.80;99.90;;;;;;5075281;28;20045;-74
2022/06/26 02:20:25;;;;;;;29.48;17.88;;;20.80;99.90;;;;;;5057084;28;20045;-73
2022/06/26 02:22:51;;;;;;;25.65;14.30;;;20.80;99.90;;;;;;5073970;28;20036;-74
2022/06/26 02:25:17;;;;;;;26.85;16.38;;;20.70;99.90;;;;;;5074131;28;20476;-74
2022/06/26 02:27:42;;;;;;;27.90;18.67;;;20.80;99.90;;;;;;5073685;28;20083;-73
2022/06/26 02:30:09;;;;;;;29.60;20.08;;;20.70;99.90;;;;;;5056767;28;20051;-73
2022/06/26 02:32:34;;;;;;;25.23;17.63;;;20.40;99.90;;;;;;5056420;28;20046;-74
2022/06/26 02:35:00;;;;;;;30.45;19.08;;;20.30;99.90;;;;;;5073237;28;20048;-74
2022/06/26 02:37:25;;;;;;;27.98;18.60;;;20.30;99.90;;;;;;5073039;28;20106;-74
2022/06/26 02:39:51;;;;;;;28.17;16.20;;;20.30;99.90;;;;;;5072943;28;20139;-74
2022/06/26 02:42:17;;;;;;;22.48;14.77;;;20.30;99.90;;;;;;5056177;28;20045;-74
2022/06/26 02:44:43;;;;;;;23.25;14.25;;;20.30;99.90;;;;;;5072524;28;20518;-75
2022/06/26 02:47:08;;;;;;;20.55;14.27;;;20.30;99.90;;;;;;5072741;28;20045;-75
2022/06/26 02:49:34;;;;;;;18.73;13.57;;;20.40;99.90;;;;;;5056210;28;20062;-75
2022/06/26 02:52:00;;;;;;;17.58;12.82;;;20.40;99.90;;;;;;5072553;28;20048;-75
2022/06/26 02:54:25;;;;;;;17.65;12.40;;;20.40;99.90;;;;;;5073082;28;20054;-75
2022/06/26 02:56:51;;;;;;;14.50;10.73;;;20.40;99.90;;;;;;5073220;28;20491;-74
2022/06/26 02:59:17;;;;;;;18.08;12.68;;;20.40;99.90;;;;;;5056211;28;20409;-75
2022/06/26 03:01:43;;;;;;;15.88;10.68;;;20.40;99.90;;;;;;5074265;28;20365;-75
2022/06/26 03:04:08;;;;;;;14.90;10.40;;;20.30;99.90;;;;;;5073232;28;20048;-75
2022/06/26 03:06:34;;;;;;;18.80;12.50;;;20.20;99.90;;;;;;5072733;28;20052;-74
2022/06/26 03:09:00;;;;;;;19.33;12.25;;;20.10;99.90;;;;;;5056157;28;20055;-74
2022/06/26 03:11:25;;;;;;;17.52;10.70;;;19.90;99.90;;;;;;5072533;28;20395;-75
2022/06/26 03:13:51;;;;;;;16.33;11.27;;;19.90;99.90;;;;;;5055120;28;20051;-74
2022/06/26 03:16:17;;;;;;;21.92;12.10;;;19.90;99.90;;;;;;5072457;28;20059;-75
2022/06/26 03:18:42;;;;;;;14.77;10.65;;;20.00;99.90;;;;;;5072039;28;20048;-75
2022/06/26 03:21:08;;;;;;;13.88;10.00;;;20.00;99.90;;;;;;5072152;28;20083;-74
2022/06/26 03:26:18;;;;;;;17.00;13.07;;;20.10;99.90;;;;;;5072246;28;20106;-75
2022/06/26 03:28:43;;;;;;;19.85;12.60;;;20.00;99.90;;;;;;5072887;28;20426;-74
2022/06/26 03:31:09;;;;;;;19.77;13.52;;;20.00;99.90;;;;;;5056055;28;20400;-74
2022/06/26 03:33:35;;;;;;;13.02;9.63;;;19.90;99.90;;;;;;5072179;28;20060;-75
2022/06/26 03:36:00;;;;;;;19.67;12.82;;;19.80;99.90;;;;;;5055411;28;20048;-75
2022/06/26 03:38:26;;;;;;;13.27;10.13;;;19.90;99.90;;;;;;5072648;28;20044;-74
2022/06/26 03:40:52;;;;;;;11.98;8.75;;;19.70;99.90;;;;;;5072287;28;20066;-74
2022/06/26 03:43:17;;;;;;;15.75;9.57;;;19.90;99.90;;;;;;5055851;28;20051;-75
2022/06/26 03:45:43;;;;;;;16.75;10.50;;;19.90;99.90;;;;;;5071736;28;20044;-74
2022/06/26 03:48:09;;;;;;;17.17;11.57;;;20.00;99.90;;;;;;5072287;28;20048;-75
2022/06/26 03:50:34;;;;;;;15.20;10.52;;;20.10;99.90;;;;;;5055650;28;20044;-74
2022/06/26 03:53:00;;;;;;;17.15;9.35;;;20.00;99.90;;;;;;5072158;28;20127;-75
2022/06/26 03:55:26;;;;;;;10.45;8.23;;;20.10;99.90;;;;;;5055140;28;20060;-75
2022/06/26 03:57:51;;;;;;;9.95;7.78;;;20.10;99.90;;;;;;5071968;28;20048;-75
2022/06/26 04:00:17;;;;;;;13.95;8.60;;;20.10;99.90;;;;;;5072245;28;20040;-74
2022/06/26 04:02:43;;;;;;;13.38;8.13;;;20.00;99.90;;;;;;5072498;28;20476;-74
2022/06/26 04:05:09;;;;;;;14.85;8.52;;;20.00;99.90;;;;;;5072441;28;20093;-74
2022/06/26 04:07:35;;;;;;;11.60;8.50;;;19.90;99.90;;;;;;5072048;28;20040;-74
2022/06/26 04:10:00;;;;;;;12.20;8.75;;;19.70;99.90;;;;;;5055343;28;20049;-74
2022/06/26 04:12:26;;;;;;;18.17;10.60;;;19.50;99.90;;;;;;5055302;28;20049;-74
2022/06/26 04:14:52;;;;;;;17.77;10.30;;;19.30;99.90;;;;;;5072152;28;20044;-74
2022/06/26 04:17:18;;;;;;;11.30;8.10;;;19.20;99.90;;;;;;5072041;28;20076;-74
2022/06/26 04:19:43;;;;;;;9.48;7.43;;;19.10;99.90;;;;;;5072295;28;20049;-74
2022/06/26 04:22:09;;;;;;;14.23;9.45;;;19.30;99.90;;;;;;5071919;28;20130;-74
2022/06/26 04:24:35;;;;;;;11.68;8.23;;;19.50;99.90;;;;;;5072082;28;20064;-75
2022/06/26 04:27:01;;;;;;;12.15;8.07;;;19.60;99.90;;;;;;5072076;28;20083;-74
2022/06/26 04:29:27;;;;;;;12.52;7.82;;;19.70;99.90;;;;;;5072487;28;20105;-74
2022/06/26 04:31:53;;;;;;;9.20;7.40;;;19.50;99.90;;;;;;5071909;28;20041;-74
2022/06/26 04:34:18;;;;;;;10.82;7.03;;;19.60;99.90;;;;;;5071587;28;20057;-75
2022/06/26 04:36:44;;;;;;;13.30;7.53;;;19.70;99.90;;;;;;5071360;28;20135;-74
2022/06/26 04:39:10;;;;;;;12.40;7.07;;;19.70;99.90;;;;;;5071647;28;20044;-75
2022/06/26 04:41:36;;;;;;;12.20;7.93;;;19.70;99.90;;;;;;5073315;28;20044;-74
2022/06/26 04:44:03;;;;;;;10.55;7.13;;;19.60;99.90;;;;;;5071705;28;20044;-74
2022/06/26 04:46:29;;;;;;;12.02;7.25;;;19.70;99.90;;;;;;5072048;28;20056;-74
2022/06/26 04:48:55;;;;;;;8.18;6.05;;;19.70;99.90;;;;;;5071801;28;20075;-74
2022/06/26 04:51:21;;;;;;;12.63;8.57;;;19.70;99.90;;;;;;5072795;28;20496;-74
2022/06/26 04:53:46;;;;;;;7.40;5.15;;;19.90;99.90;;;;;;5071710;28;20055;-75
2022/06/26 04:56:12;;;;;;;9.90;5.47;;;19.90;99.90;;;;;;5056025;28;20479;-75
2022/06/26 04:58:38;;;;;;;9.02;4.60;;;19.90;99.90;;;;;;5058989;28;20060;-74
2022/06/26 05:01:04;;;;;;;7.85;4.93;;;19.90;99.90;;;;;;5075308;28;20052;-74
2022/06/26 05:03:30;;;;;;;6.28;4.43;;;19.80;99.90;;;;;;5075150;28;20051;-75
2022/06/26 05:05:56;;;;;;;8.75;4.63;;;19.80;99.90;;;;;;5074849;28;20045;-74
2022/06/26 05:08:22;;;;;;;6.15;4.43;;;19.90;99.90;;;;;;5075316;28;20415;-75
2022/06/26 05:10:48;;;;;;;5.90;4.40;;;20.00;99.90;;;;;;5074598;28;20066;-74
2022/06/26 05:13:14;;;;;;;5.80;4.45;;;20.10;99.90;;;;;;5074582;28;20051;-75
2022/06/26 05:15:39;;;;;;;4.95;4.03;;;20.10;99.90;;;;;;5074697;28;20048;-75
2022/06/26 05:18:05;;;;;;;9.20;5.60;;;20.10;99.90;;;;;;5074965;28;20041;-74
2022/06/26 05:20:30;;;;;;;6.95;4.80;;;20.10;99.90;;;;;;5074988;28;20048;-74
2022/06/26 05:22:56;;;;;;;8.23;4.25;;;20.10;99.90;;;;;;5058091;28;20048;-75
2022/06/26 05:25:22;;;;;;;6.82;4.60;;;20.30;99.90;;;;;;5074940;28;20074;-75
2022/06/26 05:27:49;;;;;;;7.03;4.22;;;20.40;99.90;;;;;;5074951;28;20388;-75
2022/06/26 05:30:15;;;;;;;6.25;4.40;;;20.40;99.90;;;;;;5074844;28;20052;-75
2022/06/26 05:32:41;;;;;;;6.40;4.40;;;20.40;99.90;;;;;;5058137;28;20051;-74
2022/06/26 05:35:07;;;;;;;6.90;4.63;;;20.50;99.90;;;;;;5074309;28;20059;-75
2022/06/26 05:37:33;;;;;;;6.00;4.38;;;20.50;99.90;;;;;;5074095;28;20127;-75
2022/06/26 05:39:58;;;;;;;6.20;5.45;;;20.50;99.90;;;;;;5074670;28;20203;-75
2022/06/26 05:42:24;;;;;;;6.53;4.50;;;20.50;99.90;;;;;;5074647;28;20045;-75
2022/06/26 05:44:50;;;;;;;9.43;4.82;;;20.50;99.90;;;;;;5074591;28;20434;-75
2022/06/26 05:47:15;;;;;;;6.30;5.10;;;20.50;99.90;;;;;;5074675;28;20067;-75
2022/06/26 05:49:41;;;;;;;8.70;5.10;;;20.40;99.90;;;;;;5074315;28;20048;-75
2022/06/26 05:52:06;;;;;;;8.13;5.97;;;20.40;99.90;;;;;;5057881;28;20048;-75
2022/06/26 05:54:32;;;;;;;10.45;7.03;;;20.50;99.90;;;;;;5073971;28;20045;-75
2022/06/26 05:56:58;;;;;;;10.48;6.57;;;20.60;99.90;;;;;;5074444;28;20040;-74
2022/06/26 05:59:24;;;;;;;10.45;7.45;;;20.60;99.90;;;;;;5057679;28;20040;-75
2022/06/26 06:01:49;;;;;;;11.18;8.38;;;20.60;99.90;;;;;;5057300;28;20079;-75
2022/06/26 06:04:15;;;;;;;10.35;7.85;;;20.70;99.90;;;;;;5073973;28;20056;-75
2022/06/26 06:06:41;;;;;;;10.02;7.68;;;20.70;99.90;;;;;;5073394;28;20051;-75
2022/06/26 06:09:07;;;;;;;9.10;7.43;;;20.70;99.90;;;;;;5073235;28;20491;-75
2022/06/26 06:11:32;;;;;;;9.77;7.25;;;20.80;99.90;;;;;;5074217;28;20056;-75
2022/06/26 06:13:58;;;;;;;10.30;8.02;;;20.80;99.90;;;;;;5073541;28;20040;-74
2022/06/26 06:16:24;;;;;;;9.95;8.02;;;20.80;99.90;;;;;;5073836;28;20097;-75
2022/06/26 06:18:49;;;;;;;10.50;8.32;;;20.90;99.90;;;;;;5074021;28;20173;-75
2022/06/26 06:21:15;;;;;;;13.52;9.55;;;20.80;99.90;;;;;;5073483;28;20491;-75
2022/06/26 06:23:42;;;;;;;11.63;9.85;;;20.80;99.90;;;;;;5073790;28;20383;-75
2022/06/26 06:26:09;;;;;;;11.88;9.63;;;20.80;99.90;;;;;;5073758;28;20052;-75
2022/06/26 06:28:35;;;;;;;11.27;9.68;;;21.00;99.90;;;;;;5073860;28;20506;-75
2022/06/26 06:31:01;;;;;;;11.88;9.48;;;21.00;99.90;;;;;;5073420;28;20049;-75
2022/06/26 06:33:26;;;;;;;12.55;9.93;;;21.10;99.90;;;;;;5040211;28;20132;-75
2022/06/26 06:35:54;;;;;;;13.82;10.85;;;21.00;99.90;;;;;;5056460;28;20052;-75
2022/06/26 06:38:21;;;;;;;12.70;10.13;;;20.70;99.90;;;;;;5073024;28;20044;-74
2022/06/26 06:40:47;;;;;;;12.73;10.25;;;20.70;99.90;;;;;;5056360;28;20052;-74
2022/06/26 06:43:13;;;;;;;16.27;12.68;;;20.80;99.90;;;;;;5073051;28;20059;-74
2022/06/26 06:45:39;;;;;;;16.00;10.82;;;20.90;99.90;;;;;;5056931;28;20048;-74
2022/06/26 06:48:06;;;;;;;16.88;13.10;;;20.90;99.90;;;;;;5073304;28;20127;-74
2022/06/26 06:50:31;;;;;;;16.00;12.35;;;20.90;99.90;;;;;;5073115;28;20064;-74
2022/06/26 06:52:57;;;;;;;14.52;11.38;;;21.00;99.90;;;;;;5056715;28;20155;-74
2022/06/26 06:55:23;;;;;;;21.02;15.05;;;21.10;99.90;;;;;;5073016;28;20044;-74
2022/06/26 06:57:49;;;;;;;17.17;13.68;;;21.20;99.90;;;;;;5073400;28;20075;-74
2022/06/26 07:00:15;;;;;;;20.25;14.63;;;21.20;99.90;;;;;;5056529;28;20440;-74
2022/06/26 07:02:41;;;;;;;19.77;15.45;;;21.20;99.90;;;;;;5072918;28;20045;-74
2022/06/26 07:05:08;;;;;;;18.58;14.45;;;21.20;99.90;;;;;;5056304;28;20044;-74
2022/06/26 07:07:34;;;;;;;20.88;15.88;;;21.20;99.90;;;;;;5072406;28;20518;-74
2022/06/26 07:10:00;;;;;;;22.17;17.48;;;21.10;99.90;;;;;;5074057;28;20063;-75
2022/06/26 07:12:26;;;;;;;20.25;16.60;;;21.20;99.90;;;;;;5072829;28;20399;-74
2022/06/26 07:14:52;;;;;;;20.02;16.17;;;21.20;99.90;;;;;;5055938;28;20037;-78
2022/06/26 07:17:18;;;;;;;23.73;17.48;;;21.10;99.90;;;;;;5073786;28;20131;-71
2022/06/26 07:19:44;;;;;;;21.10;16.73;;;21.00;99.90;;;;;;5071582;28;20044;-75
2022/06/26 07:22:10;;;;;;;23.83;17.65;;;21.10;99.90;;;;;;5055758;28;20479;-73
2022/06/26 07:24:36;;;;;;;21.20;17.23;;;21.20;99.90;;;;;;5072776;28;20138;-73
2022/06/26 07:27:03;;;;;;;21.58;17.83;;;21.10;99.90;;;;;;5073800;28;20044;-74
2022/06/26 07:29:29;;;;;;;23.48;17.25;;;21.20;99.90;;;;;;5073157;28;20469;-75
2022/06/26 07:31:55;;;;;;;26.60;18.52;;;21.10;99.90;;;;;;5072960;28;20128;-75
2022/06/26 07:34:22;;;;;;;22.95;18.10;;;21.10;99.90;;;;;;5072463;28;20056;-75
2022/06/26 07:36:49;;;;;;;21.35;17.05;;;21.20;99.90;;;;;;5071853;28;20059;-73
2022/06/26 07:39:17;;;;;;;23.63;18.75;;;21.30;99.90;;;;;;5073607;28;20430;-77
2022/06/26 07:41:44;;;;;;;25.20;18.55;;;21.20;99.90;;;;;;5075117;28;20087;-79
2022/06/26 07:44:11;;;;;;;24.88;18.63;;;21.40;99.90;;;;;;5077117;28;20392;-80
2022/06/26 07:46:38;;;;;;;26.48;19.83;;;21.40;99.90;;;;;;5073597;28;20052;-76
2022/06/26 07:49:05;;;;;;;25.67;19.02;;;21.40;99.90;;;;;;5072534;28;20044;-78
2022/06/26 07:51:32;;;;;;;23.77;19.58;;;21.40;99.90;;;;;;5072423;28;20048;-77
2022/06/26 07:53:57;;;;;;;24.42;19.00;;;21.50;99.90;;;;;;5055379;28;20048;-77
2022/06/26 07:56:25;;;;;;;28.90;20.77;;;21.50;99.90;;;;;;5073416;28;20143;-77
2022/06/26 07:58:52;;;;;;;24.90;19.10;;;21.50;99.90;;;;;;5073071;28;20379;-78
2022/06/26 08:01:18;;;;;;;23.80;18.33;;;21.40;99.90;;;;;;5072645;28;20083;-77
2022/06/26 08:03:44;;;;;;;24.38;18.75;;;21.40;99.90;;;;;;5071646;28;20056;-78
2022/06/26 08:06:10;;;;;;;25.08;18.52;;;21.40;99.90;;;;;;5072138;28;20052;-77
2022/06/26 08:08:37;;;;;;;27.25;17.33;;;21.50;99.90;;;;;;5073334;28;20122;-77
2022/06/26 08:11:03;;;;;;;19.25;15.48;;;21.80;99.90;;;;;;5073249;28;20044;-77
2022/06/26 08:13:29;;;;;;;17.48;12.30;;;21.80;99.90;;;;;;5073341;28;20114;-77
2022/06/26 08:15:55;;;;;;;24.27;14.93;;;21.80;99.90;;;;;;5065641;28;20041;-79
2022/06/26 08:18:20;;;;;;;20.02;15.45;;;21.70;99.90;;;;;;5058920;28;20049;-79
2022/06/26 08:20:46;;;;;;;19.38;14.77;;;21.60;99.90;;;;;;5069786;28;20045;-79
2022/06/26 08:23:12;;;;;;;19.02;15.38;;;21.70;99.90;;;;;;5071728;28;20045;-78
2022/06/26 08:25:38;;;;;;;22.23;15.45;;;21.90;99.90;;;;;;5073153;28;20131;-76
2022/06/26 08:28:04;;;;;;;20.50;16.40;;;22.20;99.90;;;;;;5073267;28;20056;-77
2022/06/26 08:30:31;;;;;;;18.85;14.85;;;22.20;99.90;;;;;;5072099;28;20056;-76
2022/06/26 08:32:58;;;;;;;19.08;15.07;;;22.10;99.90;;;;;;5076767;28;20106;-78
2022/06/26 08:35:28;;;;;;;18.52;14.93;;;21.90;99.90;;;;;;5076897;28;20045;-76
2022/06/26 08:37:55;;;;;;;19.67;14.32;;;21.70;99.90;;;;;;5074899;28;20498;-77
2022/06/26 08:40:22;;;;;;;19.60;14.35;;;21.70;99.90;;;;;;5076050;28;20101;-77
2022/06/26 08:42:49;;;;;;;19.50;15.80;;;21.80;99.90;;;;;;5076259;28;20543;-77
2022/06/26 08:45:22;;;;;;;19.02;14.88;;;21.90;99.90;;;;;;5074990;28;20092;-78
2022/06/26 08:47:52;;;;;;;19.67;15.23;;;22.00;99.90;;;;;;5076127;28;20051;-77
2022/06/26 08:50:20;;;;;;;16.58;12.98;;;22.10;99.90;;;;;;5076242;28;20044;-77
2022/06/26 08:52:47;;;;;;;20.10;14.13;;;22.10;99.90;;;;;;5074706;28;20053;-76
2022/06/26 08:55:13;;;;;;;17.60;13.52;;;21.90;99.90;;;;;;5075969;28;20045;-77
2022/06/26 08:57:39;;;;;;;17.63;13.60;;;21.80;99.90;;;;;;5075879;28;20426;-77
2022/06/26 09:00:06;;;;;;;22.30;15.25;;;21.80;99.90;;;;;;5075606;28;20078;-76
2022/06/26 09:02:31;;;;;;;17.35;12.73;;;22.10;99.90;;;;;;5074971;28;20056;-76
2022/06/26 09:04:57;;;;;;;16.23;12.38;;;22.20;99.90;;;;;;5074898;28;20051;-75
2022/06/26 09:07:23;;;;;;;14.70;12.57;;;22.20;99.90;;;;;;5075563;28;20422;-75
2022/06/26 09:09:48;;;;;;;13.65;9.77;;;22.10;99.90;;;;;;5075563;28;20492;-75
2022/06/26 09:12:14;;;;;;;11.90;7.70;;;22.20;99.90;;;;;;5075998;28;20051;-75
2022/06/26 09:14:40;;;;;;;11.68;7.95;;;21.90;99.90;;;;;;5075227;28;20036;-75
2022/06/26 09:17:05;;;;;;;11.57;7.38;;;21.90;99.90;;;;;;5074599;28;20048;-76
2022/06/26 09:19:33;;;;;;;9.43;6.97;;;22.00;99.90;;;;;;5074341;28;20121;-76
2022/06/26 09:22:13;;;;;;;10.88;8.45;;;22.30;99.90;;;;;;5075378;28;20048;-77
2022/06/26 09:24:50;;;;;;;9.88;6.60;;;22.50;99.90;;;;;;5075801;28;20480;-77
2022/06/26 09:27:16;;;;;;;7.57;5.03;;;22.90;99.90;;;;;;5075720;28;20040;-83
2022/06/26 09:29:49;;;;;;;8.50;5.30;;;22.70;99.90;;;;;;5074898;28;20135;-82
2022/06/26 09:32:15;;;;;;;11.18;5.93;;;22.30;99.90;;;;;;5058069;28;20106;-82
2022/06/26 09:34:50;;;;;;;7.57;4.80;;;22.50;99.90;;;;;;5073901;28;20111;-76
2022/06/26 09:37:17;;;;;;;7.57;5.28;;;22.70;99.90;;;;;;5075467;28;20059;-76
2022/06/26 09:39:43;;;;;;;8.20;5.30;;;23.00;99.90;;;;;;5075571;28;20048;-76
2022/06/26 09:42:18;;;;;;;8.38;5.65;;;23.20;99.90;;;;;;5074056;28;20191;-76
2022/06/26 09:44:53;;;;;;;7.22;5.20;;;23.50;99.90;;;;;;5073662;28;20084;-76
2022/06/26 09:47:30;;;;;;;5.53;4.72;;;23.60;99.90;;;;;;5075189;28;20048;-76
2022/06/26 09:49:59;;;;;;;7.40;3.80;;;23.60;99.90;;;;;;5075320;28;20055;-78
2022/06/26 09:52:27;;;;;;;6.80;2.85;;;23.60;99.90;;;;;;5074244;28;20036;-77
2022/06/26 09:54:54;;;;;;;4.75;2.70;;;24.00;99.90;;;;;;5074869;28;20458;-78
2022/06/26 09:57:20;;;;;;;4.47;2.63;;;24.10;99.90;;;;;;5074212;28;20109;-80
2022/06/26 09:59:46;;;;;;;5.60;2.75;;;24.50;99.90;;;;;;5063878;28;20438;-78
2022/06/26 10:07:50;;;;;;;5.75;2.90;;;24.10;99.90;;;;;;5054749;28;20099;-77
2022/06/26 10:10:19;;;;;;;5.45;3.90;;;24.20;99.90;;;;;;5053848;28;20092;-77
2022/06/26 10:12:48;;;;;;;7.00;4.03;;;24.10;99.90;;;;;;5054844;28;20080;-77
2022/06/26 10:15:18;;;;;;;6.88;4.78;;;24.20;99.90;;;;;;5054532;28;20049;-77
2022/06/26 10:18:03;;;;;;;7.72;3.70;;;24.20;99.90;;;;;;5059593;28;20048;-75
2022/06/26 10:20:31;;;;;;;4.95;2.83;;;24.30;99.90;;;;;;5079655;28;20098;-81
2022/06/26 10:22:57;;;;;;;6.43;3.50;;;24.10;99.90;;;;;;5073191;28;20143;-77
2022/06/26 10:25:25;;;;;;;2.95;2.60;;;24.00;99.90;;;;;;5073803;28;20128;-77
2022/06/26 10:27:52;;;;;;;6.20;2.63;;;24.20;99.90;;;;;;5074491;28;20523;-76
2022/06/26 10:30:23;;;;;;;4.72;2.65;;;24.20;99.90;;;;;;5074830;28;20041;-75
2022/06/26 10:33:11;;;;;;;4.43;2.60;;;24.30;99.90;;;;;;5074559;28;20052;-76
2022/06/26 10:35:45;;;;;;;4.18;2.70;;;24.60;99.90;;;;;;5074524;28;20041;-76
2022/06/26 10:38:18;;;;;;;4.22;2.88;;;24.40;99.90;;;;;;5073051;28;20041;-76
2022/06/26 10:43:43;;;;;;;8.75;3.13;;;24.20;99.90;;;;;;5074791;28;20059;-76
2022/06/26 10:46:12;;;;;;;4.40;2.33;;;24.10;99.90;;;;;;5074371;28;20399;-76
2022/06/26 10:48:48;;;;;;;3.63;2.53;;;24.10;99.90;;;;;;5074411;28;20510;-76
2022/06/26 10:51:27;;;;;;;4.30;2.60;;;24.30;99.90;;;;;;5058179;28;20048;-76
2022/06/26 10:53:54;;;;;;;3.05;2.08;;;24.40;99.90;;;;;;5073900;28;20080;-76
2022/06/26 10:56:20;;;;;;;5.65;2.20;;;24.50;99.90;;;;;;5074091;28;20056;-77
2022/06/26 10:58:46;;;;;;;7.20;2.47;;;24.50;99.90;;;;;;5073013;28;20053;-77
2022/06/26 11:01:13;;;;;;;5.32;2.53;;;24.60;99.90;;;;;;5074320;28;20102;-76
2022/06/26 11:03:40;;;;;;;3.38;1.77;;;24.60;99.90;;;;;;5074221;28;20055;-76
2022/06/26 11:06:12;;;;;;;3.25;2.10;;;24.50;99.90;;;;;;5073731;28;20415;-76
2022/06/26 11:08:51;;;;;;;3.17;1.90;;;24.60;99.90;;;;;;5073801;28;20123;-74
2022/06/26 11:11:31;;;;;;;3.92;2.08;;;24.80;99.90;;;;;;5073994;28;20048;-79
2022/06/26 11:14:02;;;;;;;4.78;1.90;;;24.70;99.90;;;;;;5074972;28;20052;-78
2022/06/26 11:16:33;;;;;;;4.32;1.80;;;24.60;99.90;;;;;;5073091;28;20048;-76
2022/06/26 11:19:03;;;;;;;2.88;1.63;;;24.50;99.90;;;;;;5072907;28;20055;-77
2022/06/26 11:21:29;;;;;;;5.13;2.30;;;24.60;99.90;;;;;;5073581;28;20491;-75
2022/06/26 11:23:55;;;;;;;4.32;1.98;;;24.60;99.90;;;;;;5073508;28;20063;-76
2022/06/26 11:26:22;;;;;;;4.88;1.90;;;24.40;99.90;;;;;;5073472;28;20127;-74
2022/06/26 11:29:02;;;;;;;6.10;1.98;;;24.60;99.90;;;;;;5072704;28;20571;-75
2022/06/26 11:31:30;;;;;;;3.92;1.77;;;24.90;99.90;;;;;;5073638;28;20067;-75
2022/06/26 11:34:10;;;;;;;3.60;1.77;;;25.10;99.90;;;;;;5073596;28;20561;-75
2022/06/26 11:36:36;;;;;;;5.05;1.90;;;25.20;99.90;;;;;;5055579;28;20056;-75
2022/06/26 11:39:02;;;;;;;3.88;1.60;;;25.30;99.90;;;;;;5075256;28;20041;-75
2022/06/26 11:41:28;;;;;;;4.60;2.00;;;25.00;99.90;;;;;;5074314;28;20442;-79
2022/06/26 11:43:56;;;;;;;4.10;2.10;;;25.20;99.90;;;;;;5055998;28;20052;-78
2022/06/26 11:46:23;;;;;;;4.68;1.75;;;24.90;99.90;;;;;;5074463;28;20461;-76
2022/06/26 11:48:53;;;;;;;4.45;1.88;;;24.80;99.90;;;;;;5072322;28;20074;-78
2022/06/26 11:51:20;;;;;;;5.45;1.67;;;25.00;99.90;;;;;;5072439;28;20051;-77
2022/06/26 11:53:48;;;;;;;6.70;2.10;;;25.00;99.90;;;;;;5073325;28;20041;-75
2022/06/26 11:56:26;;;;;;;4.38;1.80;;;25.00;99.90;;;;;;5073503;28;20048;-75
2022/06/26 11:58:54;;;;;;;5.72;1.75;;;25.10;99.90;;;;;;5073493;28;20123;-75
2022/06/26 12:01:21;;;;;;;3.78;1.63;;;25.10;99.90;;;;;;5055675;28;20134;-76
2022/06/26 12:03:47;;;;;;;6.78;2.28;;;25.00;99.90;;;;;;5073415;28;20080;-75
2022/06/26 12:06:33;;;;;;;2.92;1.90;;;25.00;99.90;;;;;;5074025;28;20474;-75
2022/06/26 12:09:19;;;;;;;4.90;2.88;;;25.00;99.90;;;;;;5077358;28;20137;-75
2022/06/26 12:11:47;;;;;;;7.95;2.47;;;25.00;99.90;;;;;;5076311;28;20049;-76
2022/06/26 12:14:15;;;;;;;4.13;2.33;;;24.80;99.90;;;;;;5076926;28;20084;-76
2022/06/26 12:16:49;;;;;;;4.88;2.22;;;24.80;99.90;;;;;;5076236;28;20044;-75
2022/06/26 12:19:16;;;;;;;5.88;2.15;;;24.90;99.90;;;;;;5076306;28;20056;-76
2022/06/26 12:21:45;;;;;;;4.15;1.98;;;24.90;99.90;;;;;;5077354;28;20088;-75
2022/06/26 12:24:12;;;;;;;5.88;1.75;;;24.80;99.90;;;;;;5077251;28;20453;-76
2022/06/26 12:26:39;;;;;;;7.30;2.20;;;25.00;99.90;;;;;;5077160;28;20049;-75
2022/06/26 12:29:09;;;;;;;2.55;2.00;;;25.10;99.90;;;;;;5075742;28;20403;-75
2022/06/26 12:31:35;;;;;;;3.92;2.00;;;25.00;99.90;;;;;;5077039;28;20055;-75
2022/06/26 12:34:04;;;;;;;5.40;1.88;;;25.20;99.90;;;;;;5075865;28;20056;-75
2022/06/26 12:36:30;;;;;;;4.75;2.00;;;25.40;99.90;;;;;;5076460;28;20105;-76
2022/06/26 12:38:56;;;;;;;4.18;2.05;;;25.70;99.90;;;;;;5076644;28;20055;-76
2022/06/26 12:41:22;;;;;;;4.00;1.92;;;25.70;99.90;;;;;;5075784;28;20403;-76
2022/06/26 12:43:53;;;;;;;5.40;1.80;;;25.50;99.90;;;;;;5059249;28;20071;-75
2022/06/26 12:46:19;;;;;;;4.43;1.85;;;25.50;99.90;;;;;;5075526;28;20407;-76
2022/06/26 12:48:46;;;;;;;4.82;1.70;;;25.60;99.90;;;;;;5059066;28;20051;-76
2022/06/26 12:51:13;;;;;;;6.05;1.58;;;25.80;99.90;;;;;;5075807;28;20387;-75